Time;durP1;ratioP1;P1;durP2;ratioP2;P2;SDS_P1;SDS_P2;PMS_P1;PMS_P2;Temp;Humidity;BMP_temperature;BMP_pressure;BME280_temperature;BME280_humidity;BME280_pressure;Samples;Min_cycle;Max_cycle;Signal;HPM_P1;HPM_P2
2022/01/03 00:00:24;;;;;;;;;;;;;;;;;;5085674;28;20071;-84
2022/01/03 00:02:51;;;;;;;10.63;2.28;;;;;;;;;;5104994;27;20019;-84
2022/01/03 00:05:17;;;;;;;9.15;2.28;;;;;;;;;;5116304;27;20031;-83
2022/01/03 00:07:43;;;;;;;13.10;2.70;;;;;;;;;;5102227;28;20212;-83
2022/01/03 00:10:11;;;;;;;10.75;2.97;;;;;;;;;;5088246;28;20378;-85
2022/01/03 00:12:37;;;;;;;10.93;3.00;;;;;;;;;;5085103;28;20032;-84
2022/01/03 00:15:04;;;;;;;16.48;3.28;;;;;;;;;;5113133;27;20059;-84
2022/01/03 00:17:30;;;;;;;13.30;2.85;;;;;;;;;;5104553;28;20046;-84
2022/01/03 00:19:57;;;;;;;8.30;2.80;;;;;;;;;;5089972;27;20035;-84
2022/01/03 00:22:23;;;;;;;11.65;3.35;;;;;;;;;;5095204;27;20134;-83
2022/01/03 00:24:57;;;;;;;13.40;3.38;;;;;;;;;;5125298;27;20027;-84
2022/01/03 00:27:24;;;;;;;12.90;3.25;;;;;;;;;;5107975;28;20027;-86
2022/01/03 00:29:51;;;;;;;16.83;4.07;;;;;;;;;;5104163;28;20038;-84
2022/01/03 00:32:17;;;;;;;15.98;3.42;;;;;;;;;;5077969;28;20080;-84
2022/01/03 00:34:45;;;;;;;14.27;2.70;;;;;;;;;;5079892;27;20031;-84
2022/01/03 00:37:11;;;;;;;11.85;2.65;;;;;;;;;;5095472;28;20042;-84
2022/01/03 00:39:38;;;;;;;14.75;3.85;;;;;;;;;;5109464;27;20039;-84
2022/01/03 00:42:04;;;;;;;12.98;3.08;;;;;;;;;;5115218;27;20039;-85
2022/01/03 00:44:31;;;;;;;15.48;3.40;;;;;;;;;;5083659;28;20039;-85
2022/01/03 00:46:58;;;;;;;19.80;3.13;;;;;;;;;;5078238;28;20043;-85
2022/01/03 00:49:24;;;;;;;14.18;3.30;;;;;;;;;;5077833;28;20047;-85
2022/01/03 00:51:50;;;;;;;12.70;2.75;;;;;;;;;;5104227;27;20078;-86
2022/01/03 00:54:16;;;;;;;13.07;3.17;;;;;;;;;;5090174;27;20069;-85
2022/01/03 00:56:47;;;;;;;12.07;3.00;;;;;;;;;;5098187;28;20043;-85
2022/01/03 00:59:22;;;;;;;11.60;3.13;;;;;;;;;;5077494;28;20047;-84
2022/01/03 01:01:50;;;;;;;15.52;3.53;;;;;;;;;;5096354;28;20044;-83
2022/01/03 01:04:17;;;;;;;16.73;4.07;;;;;;;;;;5089255;27;20061;-83
2022/01/03 01:06:43;;;;;;;13.32;2.80;;;;;;;;;;5107825;28;20126;-84
2022/01/03 01:09:12;;;;;;;12.95;3.20;;;;;;;;;;5095484;28;20036;-84
2022/01/03 01:11:41;;;;;;;13.95;2.60;;;;;;;;;;5109896;27;20107;-84
2022/01/03 01:14:07;;;;;;;15.25;3.42;;;;;;;;;;5089927;28;20059;-84
2022/01/03 01:16:32;;;;;;;16.50;3.47;;;;;;;;;;5102428;28;20127;-85
2022/01/03 01:18:58;;;;;;;10.10;3.45;;;;;;;;;;5095252;28;20048;-84
2022/01/03 01:21:25;;;;;;;11.70;2.95;;;;;;;;;;5096004;28;20047;-84
2022/01/03 01:23:52;;;;;;;15.18;3.08;;;;;;;;;;5086511;28;20036;-84
2022/01/03 01:29:04;;;;;;;17.27;3.10;;;;;;;;;;5116430;28;20035;-84
2022/01/03 01:31:31;;;;;;;11.70;2.80;;;;;;;;;;5097339;28;20413;-84
2022/01/03 01:33:58;;;;;;;15.75;2.97;;;;;;;;;;5106023;28;20077;-84
2022/01/03 01:36:27;;;;;;;23.20;4.07;;;;;;;;;;5117340;27;20088;-85
2022/01/03 01:38:55;;;;;;;16.90;3.35;;;;;;;;;;5099915;27;20035;-84
2022/01/03 01:41:23;;;;;;;17.02;3.50;;;;;;;;;;5089400;28;20241;-84
2022/01/03 01:43:49;;;;;;;18.60;3.40;;;;;;;;;;5087201;28;20466;-84
2022/01/03 01:46:19;;;;;;;13.80;3.35;;;;;;;;;;5113283;28;20031;-83
2022/01/03 01:48:48;;;;;;;17.88;3.58;;;;;;;;;;5096206;28;20050;-84
2022/01/03 01:51:15;;;;;;;18.40;3.42;;;;;;;;;;5082593;27;20031;-84
2022/01/03 01:53:42;;;;;;;16.45;3.15;;;;;;;;;;5097438;28;20039;-84
2022/01/03 01:56:16;;;;;;;9.25;3.15;;;;;;;;;;5098829;28;20508;-84
2022/01/03 01:58:42;;;;;;;;;;;;;;;;;;5115013;28;20446;-84
2022/01/03 02:01:08;;;;;;;11.15;3.78;;;;;;;;;;5104591;28;19999;-84
2022/01/03 02:03:37;;;;;;;13.10;2.80;;;;;;;;;;5090774;28;20048;-85
2022/01/03 02:06:26;;;;;;;14.23;3.03;;;;;;;;;;5094797;28;20035;-84
2022/01/03 02:09:05;;;;;;;15.18;2.95;;;;;;;;;;5088069;28;20039;-84
2022/01/03 02:11:30;;;;;;;9.80;3.15;;;;;;;;;;5099969;27;20019;-86
2022/01/03 02:13:57;;;;;;;11.82;3.28;;;;;;;;;;5124508;27;20095;-85
2022/01/03 02:16:23;;;;;;;15.50;2.97;;;;;;;;;;5113983;27;20016;-86
2022/01/03 02:18:49;;;;;;;12.18;3.00;;;;;;;;;;5114429;28;20030;-85
2022/01/03 02:21:17;;;;;;;15.10;3.17;;;;;;;;;;5110364;27;20073;-84
2022/01/03 02:23:43;;;;;;;16.80;3.25;;;;;;;;;;5099113;28;20103;-84
2022/01/03 02:26:09;;;;;;;14.10;3.00;;;;;;;;;;5099668;27;20077;-85
2022/01/03 02:28:35;;;;;;;13.35;3.60;;;;;;;;;;5085899;27;20043;-84
2022/01/03 02:31:01;;;;;;;15.32;3.15;;;;;;;;;;5108875;27;20027;-85
2022/01/03 02:33:27;;;;;;;17.30;3.30;;;;;;;;;;5104505;28;20046;-85
2022/01/03 02:35:53;;;;;;;17.02;3.72;;;;;;;;;;5098066;28;20035;-85
2022/01/03 02:38:19;;;;;;;12.32;3.28;;;;;;;;;;5087095;28;20100;-85
2022/01/03 02:40:45;;;;;;;14.80;3.00;;;;;;;;;;5112528;27;20043;-85
2022/01/03 02:43:11;;;;;;;16.20;4.40;;;;;;;;;;5090792;28;20431;-85
2022/01/03 02:45:37;;;;;;;15.00;3.90;;;;;;;;;;5096288;28;20126;-85
2022/01/03 02:48:07;;;;;;;18.85;4.72;;;;;;;;;;5097488;28;20056;-85
2022/01/03 02:50:33;;;;;;;12.50;3.70;;;;;;;;;;5079105;27;20450;-84
2022/01/03 02:53:00;;;;;;;18.70;3.78;;;;;;;;;;5106694;27;20027;-85
2022/01/03 02:55:26;;;;;;;14.45;3.92;;;;;;;;;;5105952;27;20035;-84
2022/01/03 02:57:53;;;;;;;12.48;3.92;;;;;;;;;;5087964;27;20051;-85
2022/01/03 03:00:20;;;;;;;20.00;5.40;;;;;;;;;;5130823;27;20015;-86
2022/01/03 03:02:46;;;;;;;16.35;4.45;;;;;;;;;;5129781;27;20049;-85
2022/01/03 03:05:13;;;;;;;14.95;4.70;;;;;;;;;;5129462;27;20012;-85
2022/01/03 03:07:39;;;;;;;20.85;4.15;;;;;;;;;;5094910;28;20103;-84
2022/01/03 03:10:17;;;;;;;18.15;4.40;;;;;;;;;;5089076;28;20047;-84
2022/01/03 03:12:43;;;;;;;15.45;3.92;;;;;;;;;;5107608;28;20047;-84
2022/01/03 03:15:10;;;;;;;17.08;3.90;;;;;;;;;;5105120;28;20051;-84
2022/01/03 03:17:37;;;;;;;15.80;4.00;;;;;;;;;;5104670;28;20028;-84
2022/01/03 03:20:05;;;;;;;21.48;4.05;;;;;;;;;;5105498;28;20035;-84
2022/01/03 03:22:31;;;;;;;12.98;3.25;;;;;;;;;;5088009;27;20036;-84
2022/01/03 03:25:09;;;;;;;18.65;3.33;;;;;;;;;;5104402;28;20036;-84
2022/01/03 03:27:37;;;;;;;16.27;3.75;;;;;;;;;;5105902;27;20046;-84
2022/01/03 03:30:04;;;;;;;15.98;3.80;;;;;;;;;;5095635;27;20033;-84
2022/01/03 03:32:30;;;;;;;18.35;3.72;;;;;;;;;;5089231;27;20043;-85
2022/01/03 03:34:56;;;;;;;18.08;4.05;;;;;;;;;;5087971;28;20058;-85
2022/01/03 03:37:22;;;;;;;17.50;3.30;;;;;;;;;;5100196;27;20045;-84
2022/01/03 03:39:48;;;;;;;18.73;3.55;;;;;;;;;;5126637;27;20122;-84
2022/01/03 03:42:15;;;;;;;15.73;4.15;;;;;;;;;;5116811;27;20416;-85
2022/01/03 03:44:41;;;;;;;14.32;3.40;;;;;;;;;;5114385;27;20103;-85
2022/01/03 03:47:08;;;;;;;16.48;3.08;;;;;;;;;;5099061;27;20039;-84
2022/01/03 03:49:34;;;;;;;24.52;3.60;;;;;;;;;;5118242;27;20062;-85
2022/01/03 03:52:02;;;;;;;13.95;3.08;;;;;;;;;;5103009;28;20039;-85
2022/01/03 03:54:32;;;;;;;25.90;4.55;;;;;;;;;;5116595;27;20059;-85
2022/01/03 03:56:58;;;;;;;14.98;3.47;;;;;;;;;;5116290;27;20036;-84
2022/01/03 03:59:24;;;;;;;20.00;4.38;;;;;;;;;;5117762;28;20032;-84
2022/01/03 04:01:51;;;;;;;13.32;3.47;;;;;;;;;;5105134;27;20123;-84
2022/01/03 04:04:17;;;;;;;12.57;3.17;;;;;;;;;;5104302;28;20043;-84
2022/01/03 04:06:43;;;;;;;15.70;2.97;;;;;;;;;;5104776;28;20036;-84
2022/01/03 04:09:09;;;;;;;21.98;3.08;;;;;;;;;;5103050;28;20061;-84
2022/01/03 04:11:35;;;;;;;17.75;3.42;;;;;;;;;;5095199;27;20046;-84
2022/01/03 04:14:01;;;;;;;18.08;3.80;;;;;;;;;;5102834;28;20502;-84
2022/01/03 04:16:27;;;;;;;13.88;3.58;;;;;;;;;;5087303;28;20069;-84
2022/01/03 04:18:53;;;;;;;14.13;4.03;;;;;;;;;;5088766;28;20040;-84
2022/01/03 04:21:19;;;;;;;18.88;3.45;;;;;;;;;;5103910;28;20043;-84
2022/01/03 04:23:45;;;;;;;16.98;4.28;;;;;;;;;;5105233;28;20047;-85
2022/01/03 04:26:11;;;;;;;19.88;3.55;;;;;;;;;;5114596;27;20039;-84
2022/01/03 04:28:38;;;;;;;15.05;3.08;;;;;;;;;;5116366;27;20042;-85
2022/01/03 04:31:04;;;;;;;10.73;2.75;;;;;;;;;;5086019;28;20099;-84
2022/01/03 04:33:30;;;;;;;15.05;3.42;;;;;;;;;;5088894;27;20035;-84
2022/01/03 04:35:56;;;;;;;20.70;4.05;;;;;;;;;;5106889;28;20047;-84
2022/01/03 04:38:22;;;;;;;16.95;3.42;;;;;;;;;;5089510;28;20041;-84
2022/01/03 04:40:48;;;;;;;22.98;3.85;;;;;;;;;;5119856;27;20043;-84
2022/01/03 04:43:14;;;;;;;20.98;4.22;;;;;;;;;;5098556;27;20043;-84
2022/01/03 04:45:40;;;;;;;16.75;3.97;;;;;;;;;;5115356;27;20042;-85
2022/01/03 04:48:06;;;;;;;19.52;3.83;;;;;;;;;;5106046;28;20040;-86
2022/01/03 04:50:32;;;;;;;18.35;4.70;;;;;;;;;;5087097;28;20122;-84
2022/01/03 04:52:59;;;;;;;20.63;4.03;;;;;;;;;;5104753;28;20040;-85
2022/01/03 04:55:25;;;;;;;15.70;3.78;;;;;;;;;;5095143;28;20051;-85
2022/01/03 04:57:53;;;;;;;24.55;3.72;;;;;;;;;;5105068;28;20035;-85
2022/01/03 05:00:19;;;;;;;17.75;3.28;;;;;;;;;;5086309;28;20099;-84
2022/01/03 05:02:45;;;;;;;15.63;3.78;;;;;;;;;;5103206;28;20047;-86
2022/01/03 05:05:11;;;;;;;14.65;3.22;;;;;;;;;;5085704;28;20099;-85
2022/01/03 05:07:37;;;;;;;20.00;4.68;;;;;;;;;;5105977;27;20039;-84
2022/01/03 05:10:04;;;;;;;22.27;4.35;;;;;;;;;;5116425;28;20104;-84
2022/01/03 05:12:30;;;;;;;16.10;3.80;;;;;;;;;;5103819;28;20587;-84
2022/01/03 05:14:56;;;;;;;24.95;4.32;;;;;;;;;;5086959;28;20067;-84
2022/01/03 05:17:23;;;;;;;19.52;3.47;;;;;;;;;;5086523;28;20039;-84
2022/01/03 05:19:49;;;;;;;24.10;3.50;;;;;;;;;;5106546;28;20047;-84
2022/01/03 05:22:15;;;;;;;18.70;4.07;;;;;;;;;;5111124;28;20038;-84
2022/01/03 05:24:41;;;;;;;24.25;4.10;;;;;;;;;;5119944;28;20545;-84
2022/01/03 05:27:07;;;;;;;19.33;4.05;;;;;;;;;;5110525;28;20059;-85
2022/01/03 05:29:33;;;;;;;24.08;4.25;;;;;;;;;;5089808;28;20036;-85
2022/01/03 05:31:59;;;;;;;17.77;3.83;;;;;;;;;;5117781;27;20031;-85
2022/01/03 05:34:25;;;;;;;14.77;3.45;;;;;;;;;;5103870;27;20054;-84
2022/01/03 05:36:51;;;;;;;17.58;3.45;;;;;;;;;;5112395;28;20095;-84
2022/01/03 05:39:17;;;;;;;24.10;4.78;;;;;;;;;;5104965;28;20035;-83
2022/01/03 05:41:43;;;;;;;21.20;4.65;;;;;;;;;;5104784;28;20020;-85
2022/01/03 05:44:09;;;;;;;16.92;3.90;;;;;;;;;;5131237;27;20019;-85
2022/01/03 05:46:35;;;;;;;19.42;4.95;;;;;;;;;;5122391;27;20401;-84
2022/01/03 05:49:01;;;;;;;19.02;4.85;;;;;;;;;;5107942;27;20529;-83
2022/01/03 05:51:27;;;;;;;17.55;4.43;;;;;;;;;;5115304;27;20172;-84
2022/01/03 05:53:53;;;;;;;25.20;4.50;;;;;;;;;;5108080;27;20041;-84
2022/01/03 05:56:20;;;;;;;21.13;4.35;;;;;;;;;;5099814;27;20046;-84
2022/01/03 05:58:46;;;;;;;26.13;4.65;;;;;;;;;;5108657;27;20047;-84
2022/01/03 06:01:12;;;;;;;15.88;4.00;;;;;;;;;;5079479;28;20046;-84
2022/01/03 06:03:40;;;;;;;23.80;5.07;;;;;;;;;;5080787;28;20601;-85
2022/01/03 06:08:36;;;;;;;27.10;4.65;;;;;;;;;;5097766;28;20101;-84
2022/01/03 06:11:03;;;;;;;23.08;5.10;;;;;;;;;;5099666;27;20104;-84
2022/01/03 06:13:29;;;;;;;22.05;4.25;;;;;;;;;;5095025;28;20042;-84
2022/01/03 06:15:56;;;;;;;24.45;5.15;;;;;;;;;;5103991;28;20143;-84
2022/01/03 06:18:22;;;;;;;19.83;4.05;;;;;;;;;;5089444;28;20534;-84
2022/01/03 06:20:49;;;;;;;21.40;4.75;;;;;;;;;;5081215;28;20054;-84
2022/01/03 06:23:16;;;;;;;28.73;5.00;;;;;;;;;;5080042;28;20675;-84
2022/01/03 06:25:42;;;;;;;22.15;4.15;;;;;;;;;;5098094;28;20091;-84
2022/01/03 06:28:09;;;;;;;23.70;4.45;;;;;;;;;;5097956;28;20528;-84
2022/01/03 06:30:35;;;;;;;22.90;5.32;;;;;;;;;;5102620;28;20039;-84
2022/01/03 06:33:02;;;;;;;25.00;4.88;;;;;;;;;;5106238;28;20046;-84
2022/01/03 06:35:28;;;;;;;23.92;5.03;;;;;;;;;;5104213;28;20062;-84
2022/01/03 06:37:54;;;;;;;26.25;4.80;;;;;;;;;;5089611;28;20089;-84
2022/01/03 06:40:20;;;;;;;25.33;6.30;;;;;;;;;;5089198;27;20039;-83
2022/01/03 06:42:47;;;;;;;25.25;4.63;;;;;;;;;;5116252;27;20511;-84
2022/01/03 06:45:13;;;;;;;25.25;5.20;;;;;;;;;;5111103;27;20064;-85
2022/01/03 06:47:39;;;;;;;26.60;4.82;;;;;;;;;;5095118;27;20035;-84
2022/01/03 06:50:05;;;;;;;24.70;4.43;;;;;;;;;;5100699;28;20032;-84
2022/01/03 06:52:31;;;;;;;27.63;4.25;;;;;;;;;;5104409;28;20035;-84
2022/01/03 06:54:57;;;;;;;32.53;5.95;;;;;;;;;;5090266;27;20028;-84
2022/01/03 06:57:23;;;;;;;24.00;4.32;;;;;;;;;;5087915;27;20035;-84
2022/01/03 06:59:49;;;;;;;20.67;4.50;;;;;;;;;;5089429;27;20059;-84
2022/01/03 07:02:15;;;;;;;29.20;5.00;;;;;;;;;;5109942;27;20043;-84
2022/01/03 07:04:41;;;;;;;28.52;5.47;;;;;;;;;;5112584;28;20054;-85
2022/01/03 07:07:07;;;;;;;22.75;4.90;;;;;;;;;;5095580;28;20123;-85
2022/01/03 07:09:33;;;;;;;25.02;4.57;;;;;;;;;;5080843;28;20050;-85
2022/01/03 07:11:59;;;;;;;26.02;5.03;;;;;;;;;;5086281;27;20042;-84
2022/01/03 07:19:56;;;;;;;21.02;4.75;;;;;;;;;;5119957;27;20695;-84
2022/01/03 07:22:22;;;;;;;23.63;4.47;;;;;;;;;;5096932;27;20486;-83
2022/01/03 07:24:49;;;;;;;26.58;5.47;;;;;;;;;;5091193;27;20031;-83
2022/01/03 07:27:15;;;;;;;27.23;4.47;;;;;;;;;;5114209;27;20450;-83
2022/01/03 07:29:42;;;;;;;27.33;4.95;;;;;;;;;;5089693;28;20040;-83
2022/01/03 07:32:08;;;;;;;27.40;5.78;;;;;;;;;;5099075;28;20039;-83
2022/01/03 07:34:37;;;;;;;27.58;6.07;;;;;;;;;;5081486;27;20036;-83
2022/01/03 07:37:03;;;;;;;31.58;6.35;;;;;;;;;;5094175;27;20031;-84
2022/01/03 07:39:31;;;;;;;30.48;5.20;;;;;;;;;;5096955;27;20046;-84
2022/01/03 07:41:58;;;;;;;27.63;5.47;;;;;;;;;;5112982;27;20677;-84
2022/01/03 07:44:27;;;;;;;19.95;5.32;;;;;;;;;;5099119;27;20038;-85
2022/01/03 07:46:54;;;;;;;28.55;5.28;;;;;;;;;;5096312;27;20061;-83
2022/01/03 07:49:21;;;;;;;24.35;4.82;;;;;;;;;;5081316;28;20089;-83
2022/01/03 07:51:47;;;;;;;26.92;6.13;;;;;;;;;;5103195;27;20058;-83
2022/01/03 07:54:14;;;;;;;30.70;6.03;;;;;;;;;;5089185;27;20039;-83
2022/01/03 07:56:43;;;;;;;34.10;6.53;;;;;;;;;;5101898;27;20077;-86
2022/01/03 07:59:10;;;;;;;28.55;7.38;;;;;;;;;;5078803;28;20123;-84
2022/01/03 08:01:37;;;;;;;27.27;7.65;;;;;;;;;;5094543;27;20043;-85
2022/01/03 08:04:07;;;;;;;27.80;8.35;;;;;;;;;;5098172;28;20171;-85
2022/01/03 08:06:33;;;;;;;28.40;7.78;;;;;;;;;;5078203;28;20061;-86
2022/01/03 08:09:02;;;;;;;21.67;8.05;;;;;;;;;;5078754;28;20039;-85
2022/01/03 08:11:28;;;;;;;22.00;5.60;;;;;;;;;;5102526;27;20049;-86
2022/01/03 08:13:57;;;;;;;22.35;6.93;;;;;;;;;;5087233;27;20511;-85
2022/01/03 08:16:26;;;;;;;22.75;6.72;;;;;;;;;;5114406;27;20553;-85
2022/01/03 08:18:52;;;;;;;24.73;6.32;;;;;;;;;;5091976;28;20796;-85
2022/01/03 08:21:18;;;;;;;24.27;5.20;;;;;;;;;;5094996;28;20123;-86
2022/01/03 08:23:44;;;;;;;26.45;5.35;;;;;;;;;;5092457;27;20042;-85
2022/01/03 08:26:13;;;;;;;22.95;7.28;;;;;;;;;;5080496;28;20023;-87
2022/01/03 08:28:42;;;;;;;23.83;5.55;;;;;;;;;;5100923;27;20023;-85
2022/01/03 08:31:09;;;;;;;19.67;4.60;;;;;;;;;;5116937;28;20040;-86
2022/01/03 08:33:35;;;;;;;25.15;5.28;;;;;;;;;;5130503;27;20050;-87
2022/01/03 08:36:01;;;;;;;29.52;5.65;;;;;;;;;;5140109;27;20067;-86
2022/01/03 08:38:27;;;;;;;21.52;4.85;;;;;;;;;;5090804;27;20046;-86
2022/01/03 08:40:53;;;;;;;18.73;4.55;;;;;;;;;;5106577;27;20035;-85
2022/01/03 08:43:20;;;;;;;19.08;4.10;;;;;;;;;;5090793;27;20035;-86
2022/01/03 08:45:46;;;;;;;21.25;4.95;;;;;;;;;;5082869;27;20153;-85
2022/01/03 08:48:12;;;;;;;26.95;6.03;;;;;;;;;;5086767;27;20035;-84
2022/01/03 08:50:38;;;;;;;27.10;5.18;;;;;;;;;;5109711;27;20031;-84
2022/01/03 08:53:06;;;;;;;23.27;4.70;;;;;;;;;;5104315;28;20092;-84
2022/01/03 08:55:33;;;;;;;20.95;4.50;;;;;;;;;;5106064;28;20089;-85
2022/01/03 08:57:59;;;;;;;17.58;4.53;;;;;;;;;;5081155;28;20031;-85
2022/01/03 09:00:28;;;;;;;24.65;5.03;;;;;;;;;;5095562;28;20055;-84
2022/01/03 09:02:57;;;;;;;23.83;4.50;;;;;;;;;;5085261;28;20043;-84
2022/01/03 09:05:27;;;;;;;21.00;4.80;;;;;;;;;;5112405;28;20051;-85
2022/01/03 09:07:56;;;;;;;23.30;5.00;;;;;;;;;;5097746;27;21180;-84
2022/01/03 09:10:22;;;;;;;20.48;4.57;;;;;;;;;;5099766;28;20039;-84
2022/01/03 09:12:48;;;;;;;17.60;3.80;;;;;;;;;;5079181;28;20040;-84
2022/01/03 09:15:17;;;;;;;17.58;4.78;;;;;;;;;;5116817;27;20137;-84
2022/01/03 09:17:43;;;;;;;21.20;4.65;;;;;;;;;;5119861;27;20023;-86
2022/01/03 09:20:09;;;;;;;19.80;4.63;;;;;;;;;;5122858;27;20039;-87
2022/01/03 09:22:41;;;;;;;19.33;5.15;;;;;;;;;;5137695;27;20080;-87
2022/01/03 09:30:20;;;;;;;18.98;4.00;;;;;;;;;;5101991;27;20040;-87
2022/01/03 09:32:46;;;;;;;15.50;4.55;;;;;;;;;;5084243;27;20470;-86
2022/01/03 09:35:12;;;;;;;16.98;4.13;;;;;;;;;;5088451;27;20042;-85
2022/01/03 09:37:44;;;;;;;19.80;4.75;;;;;;;;;;5105338;27;20044;-86
2022/01/03 09:40:10;;;;;;;20.70;4.22;;;;;;;;;;5110666;27;20192;-86
2022/01/03 09:42:36;;;;;;;17.33;5.13;;;;;;;;;;5092014;27;20032;-87
2022/01/03 09:45:07;;;;;;;25.08;5.40;;;;;;;;;;5104973;27;20389;-87
2022/01/03 09:47:33;;;;;;;21.60;5.68;;;;;;;;;;5094322;28;20494;-87
2022/01/03 09:50:03;;;;;;;16.30;3.70;;;;;;;;;;5103825;27;20045;-87
2022/01/03 09:52:38;;;;;;;20.92;4.90;;;;;;;;;;5085499;28;20069;-85
2022/01/03 09:59:05;;;;;;;20.73;4.50;;;;;;;;;;5137912;27;20424;-87
2022/01/03 10:08:21;;;;;;;15.30;3.53;;;;;;;;;;5143313;22;20062;-48
2022/01/03 10:10:51;;;;;;;19.88;4.40;;;;;;;;;;5137612;27;20046;-49
2022/01/03 10:13:17;;;;;;;17.50;3.63;;;;;;;;;;5122597;27;20114;-49
2022/01/03 10:15:43;;;;;;;22.80;4.22;;;;;;;;;;5129513;27;20039;-48
2022/01/03 10:18:17;;;;;;;21.52;4.28;;;;;;;;;;5115227;27;20118;-49
2022/01/03 10:20:43;;;;;;;21.70;4.40;;;;;;;;;;5116908;28;20043;-48
2022/01/03 10:23:10;;;;;;;23.83;3.78;;;;;;;;;;5115812;27;20039;-48
2022/01/03 10:25:36;;;;;;;15.35;3.35;;;;;;;;;;5116838;27;20054;-49
2022/01/03 10:28:05;;;;;;;14.40;3.90;;;;;;;;;;5115979;27;20067;-50
2022/01/03 10:30:36;;;;;;;21.48;4.15;;;;;;;;;;5105092;27;20031;-48
2022/01/03 10:33:03;;;;;;;16.13;4.43;;;;;;;;;;5099384;27;20031;-50
2022/01/03 10:35:35;;;;;;;23.85;5.03;;;;;;;;;;5104039;27;20041;-49
2022/01/03 10:38:01;;;;;;;20.60;5.00;;;;;;;;;;5108829;28;20043;-51
2022/01/03 10:40:28;;;;;;;19.15;4.93;;;;;;;;;;5090085;28;20381;-48
2022/01/03 10:42:54;;;;;;;21.92;4.38;;;;;;;;;;5108561;28;20047;-48
2022/01/03 10:45:31;;;;;;;18.23;4.15;;;;;;;;;;5107092;28;20484;-54
2022/01/03 10:47:57;;;;;;;21.45;3.90;;;;;;;;;;5102992;28;20496;-49
2022/01/03 10:50:24;;;;;;;24.65;4.38;;;;;;;;;;5099494;28;20040;-48
2022/01/03 10:52:50;;;;;;;18.58;4.82;;;;;;;;;;5102122;28;20032;-51
2022/01/03 10:55:34;;;;;;;19.88;4.47;;;;;;;;;;5112382;28;20063;-49
2022/01/03 10:58:00;;;;;;;24.40;4.60;;;;;;;;;;5113330;28;20035;-53
2022/01/03 11:00:26;;;;;;;16.27;4.80;;;;;;;;;;5112290;28;20035;-50
2022/01/03 11:03:20;;;;;;;16.90;3.78;;;;;;;;;;5093385;28;20035;-53
2022/01/03 11:05:52;;;;;;;19.38;3.97;;;;;;;;;;5108543;28;20185;-52
2022/01/03 11:11:15;;;;;;;21.95;4.15;;;;;;;;;;5103232;28;20605;-51
2022/01/03 11:13:42;;;;;;;22.80;4.28;;;;;;;;;;5111209;28;20401;-50
2022/01/03 11:16:09;;;;;;;14.65;3.97;;;;;;;;;;5113079;28;20066;-49
2022/01/03 11:18:35;;;;;;;19.17;4.05;;;;;;;;;;5113761;28;20036;-54
2022/01/03 11:21:03;;;;;;;22.38;4.70;;;;;;;;;;5113341;28;20055;-49
2022/01/03 11:23:29;;;;;;;19.80;4.40;;;;;;;;;;5113676;28;20043;-47
2022/01/03 11:25:55;;;;;;;19.58;4.28;;;;;;;;;;5113223;28;20043;-49
2022/01/03 11:28:26;;;;;;;16.80;4.07;;;;;;;;;;5113078;28;20039;-49
2022/01/03 11:30:53;;;;;;;18.73;3.70;;;;;;;;;;5112202;28;20046;-48
2022/01/03 11:33:20;;;;;;;19.00;3.33;;;;;;;;;;5111379;28;20512;-48
2022/01/03 11:35:47;;;;;;;22.33;4.03;;;;;;;;;;5112071;28;20099;-50
2022/01/03 11:38:15;;;;;;;11.32;3.55;;;;;;;;;;5111295;28;20100;-51
2022/01/03 11:40:42;;;;;;;19.02;4.57;;;;;;;;;;5093236;28;20467;-53
2022/01/03 11:43:08;;;;;;;22.75;4.00;;;;;;;;;;5084862;28;20043;-50
2022/01/03 11:45:35;;;;;;;16.35;4.07;;;;;;;;;;5094487;28;20496;-52
2022/01/03 11:48:01;;;;;;;20.33;5.25;;;;;;;;;;5093481;28;20035;-54
2022/01/03 11:50:27;;;;;;;20.90;5.20;;;;;;;;;;5093176;28;20453;-50
2022/01/03 11:52:54;;;;;;;24.30;4.63;;;;;;;;;;5091973;28;20399;-50
2022/01/03 11:55:23;;;;;;;22.58;5.10;;;;;;;;;;5105843;28;20043;-48
2022/01/03 12:03:49;;;;;;;32.10;5.97;;;;;;;;;;5109239;27;20090;-50
2022/01/03 12:06:23;;;;;;;18.55;4.05;;;;;;;;;;5088648;28;20120;-49
2022/01/03 12:08:49;;;;;;;;;;;;;;;;;;5112988;27;20130;-49
2022/01/03 12:11:22;;;;;;;18.25;5.53;;;;;;;;;;5110753;28;20006;-50
2022/01/03 12:13:51;;;;;;;16.88;4.35;;;;;;;;;;5110627;28;20031;-48
2022/01/03 12:16:18;;;;;;;16.45;5.43;;;;;;;;;;5092034;28;20083;-50
2022/01/03 12:18:57;;;;;;;22.52;4.70;;;;;;;;;;5091059;27;20044;-50
2022/01/03 12:21:42;;;;;;;22.60;4.60;;;;;;;;;;5098926;27;20075;-49
2022/01/03 12:24:28;;;;;;;21.23;4.70;;;;;;;;;;5109353;27;20035;-52
2022/01/03 12:27:13;;;;;;;17.92;4.15;;;;;;;;;;5084296;27;20027;-50
2022/01/03 12:29:54;;;;;;;18.48;3.78;;;;;;;;;;5088691;28;20439;-53
2022/01/03 12:32:26;;;;;;;18.83;4.28;;;;;;;;;;5089112;28;20031;-50
2022/01/03 12:35:08;;;;;;;17.88;4.80;;;;;;;;;;5086887;28;20047;-54
2022/01/03 12:37:38;;;;;;;16.52;4.05;;;;;;;;;;5108071;28;20110;-49
2022/01/03 12:40:04;;;;;;;16.92;4.82;;;;;;;;;;5109883;28;20047;-51
2022/01/03 12:42:46;;;;;;;16.67;4.35;;;;;;;;;;5109412;28;20040;-52
2022/01/03 12:45:12;;;;;;;14.32;3.72;;;;;;;;;;5098453;28;20049;-49
2022/01/03 12:47:39;;;;;;;19.48;5.05;;;;;;;;;;5100754;28;20043;-49
2022/01/03 12:50:27;;;;;;;20.52;4.60;;;;;;;;;;5093380;28;20126;-52
2022/01/03 12:52:54;;;;;;;19.92;6.60;;;;;;;;;;5074273;28;20063;-52
2022/01/03 12:55:39;;;;;;;15.70;3.83;;;;;;;;;;5103933;28;20032;-52
2022/01/03 12:58:14;;;;;;;15.82;5.95;;;;;;;;;;5110999;28;20047;-52
2022/01/03 13:00:41;;;;;;;14.13;3.55;;;;;;;;;;5093152;28;20035;-51
2022/01/03 13:03:22;;;;;;;20.67;4.93;;;;;;;;;;5108789;28;20386;-50
2022/01/03 13:06:07;;;;;;;16.48;4.45;;;;;;;;;;5087334;28;20046;-48
2022/01/03 13:08:33;;;;;;;22.08;4.68;;;;;;;;;;5090737;28;20084;-53
2022/01/03 13:11:06;;;;;;;18.10;3.90;;;;;;;;;;5107881;28;20039;-48
2022/01/03 13:13:32;;;;;;;19.67;4.72;;;;;;;;;;5091495;28;20036;-49
2022/01/03 13:15:58;;;;;;;16.77;4.20;;;;;;;;;;5102672;28;20056;-49
2022/01/03 13:18:24;;;;;;;18.20;4.82;;;;;;;;;;5107031;28;20122;-49
2022/01/03 13:20:56;;;;;;;15.48;4.97;;;;;;;;;;5096547;28;20497;-52
2022/01/03 13:23:24;;;;;;;20.35;5.40;;;;;;;;;;5112393;28;20039;-50
2022/01/03 13:25:50;;;;;;;16.15;6.32;;;;;;;;;;5114643;28;20035;-51
2022/01/03 13:28:16;;;;;;;20.65;6.80;;;;;;;;;;5111596;28;20064;-49
2022/01/03 13:31:07;;;;;;;25.13;8.05;;;;;;;;;;5117360;28;20055;-50
2022/01/03 13:33:33;;;;;;;34.42;9.32;;;;;;;;;;5090103;28;20039;-48
2022/01/03 13:36:00;;;;;;;24.52;6.80;;;;;;;;;;5112941;28;20081;-51
2022/01/03 13:38:28;;;;;;;22.55;6.47;;;;;;;;;;5115920;28;20043;-47
2022/01/03 13:40:54;;;;;;;22.00;4.95;;;;;;;;;;5107743;28;20068;-49
2022/01/03 13:43:25;;;;;;;17.17;4.57;;;;;;;;;;5100484;28;20073;-47
2022/01/03 13:51:19;;;;;;;19.25;6.15;;;;;;;;;;5112172;28;20035;-49
2022/01/03 13:53:55;;;;;;;22.10;6.20;;;;;;;;;;5119439;28;20039;-51
2022/01/03 13:56:24;;;;;;;12.68;3.72;;;;;;;;;;5106230;28;20130;-48
2022/01/03 13:58:50;;;;;;;17.73;5.88;;;;;;;;;;5094753;28;20040;-52
2022/01/03 14:01:16;;;;;;;27.35;8.43;;;;;;;;;;5113173;28;20443;-51
2022/01/03 14:03:43;;;;;;;21.85;8.23;;;;;;;;;;5112016;28;20036;-50
2022/01/03 14:06:19;;;;;;;21.17;6.25;;;;;;;;;;5109514;28;20042;-51
2022/01/03 14:08:49;;;;;;;18.50;5.18;;;;;;;;;;5113093;28;20058;-49
2022/01/03 14:11:16;;;;;;;20.08;4.32;;;;;;;;;;5114122;28;20518;-50
2022/01/03 14:13:42;;;;;;;22.50;4.90;;;;;;;;;;5114372;28;20085;-48
2022/01/03 14:16:13;;;;;;;16.17;4.03;;;;;;;;;;5113407;28;20058;-50
2022/01/03 14:18:41;;;;;;;17.45;4.35;;;;;;;;;;5112331;28;20036;-52
2022/01/03 14:21:18;;;;;;;21.00;5.13;;;;;;;;;;5114201;28;20114;-51
2022/01/03 14:23:45;;;;;;;20.00;5.10;;;;;;;;;;5113588;28;20047;-50
2022/01/03 14:26:21;;;;;;;24.38;4.50;;;;;;;;;;5113821;28;20365;-53
2022/01/03 14:28:48;;;;;;;22.65;5.25;;;;;;;;;;5113663;28;20047;-52
2022/01/03 14:31:17;;;;;;;19.50;5.38;;;;;;;;;;5113055;28;20036;-47
2022/01/03 14:33:43;;;;;;;20.92;4.13;;;;;;;;;;5113455;28;20038;-52
2022/01/03 14:36:17;;;;;;;23.27;5.68;;;;;;;;;;5112209;28;20397;-51
2022/01/03 14:38:45;;;;;;;20.85;4.97;;;;;;;;;;5113639;28;20047;-51
2022/01/03 14:41:24;;;;;;;18.00;4.53;;;;;;;;;;5095014;28;20039;-49
2022/01/03 14:44:06;;;;;;;21.40;4.63;;;;;;;;;;5113793;28;20043;-49
2022/01/03 14:46:44;;;;;;;17.35;4.20;;;;;;;;;;5113232;28;20040;-48
2022/01/03 14:49:21;;;;;;;18.67;3.63;;;;;;;;;;5094565;28;20040;-48
2022/01/03 14:51:53;;;;;;;21.08;4.20;;;;;;;;;;5112278;28;20085;-51
2022/01/03 14:54:23;;;;;;;21.67;4.50;;;;;;;;;;5103982;28;20404;-51
2022/01/03 14:56:51;;;;;;;14.07;3.97;;;;;;;;;;5111159;28;20090;-49
2022/01/03 14:59:18;;;;;;;19.75;4.40;;;;;;;;;;5097927;28;20451;-50
2022/01/03 15:01:49;;;;;;;17.25;3.85;;;;;;;;;;5089544;28;20480;-47
2022/01/03 15:04:19;;;;;;;20.52;4.72;;;;;;;;;;5113692;27;20031;-49
2022/01/03 15:06:45;;;;;;;23.05;4.78;;;;;;;;;;5124805;27;20047;-51
2022/01/03 15:09:22;;;;;;;21.02;4.97;;;;;;;;;;5124395;27;20031;-50
2022/01/03 15:11:48;;;;;;;20.55;4.97;;;;;;;;;;5118352;27;20393;-51
2022/01/03 15:14:15;;;;;;;12.57;4.20;;;;;;;;;;5093578;28;20127;-50
2022/01/03 15:16:45;;;;;;;20.88;4.78;;;;;;;;;;5093059;28;20079;-51